createdAt,value
2018-02-17T00:00:42.642Z,12.40
2018-02-17T00:03:10.207Z,13.30
2018-02-17T00:05:38.584Z,12.70
2018-02-17T00:08:06.142Z,13.32
2018-02-17T00:10:33.742Z,13.68
2018-02-17T00:13:01.338Z,13.80
2018-02-17T00:15:28.899Z,14.35
2018-02-17T00:17:56.465Z,13.05
2018-02-17T00:20:24.122Z,15.63
2018-02-17T00:22:51.668Z,14.30
2018-02-17T00:25:19.252Z,15.40
2018-02-17T00:27:46.890Z,15.20
2018-02-17T00:30:14.473Z,18.90
2018-02-17T00:32:42.048Z,15.68
2018-02-17T00:35:09.678Z,15.48
2018-02-17T00:37:37.358Z,17.52
2018-02-17T00:40:04.925Z,16.42
2018-02-17T00:42:32.524Z,16.92
2018-02-17T00:45:00.123Z,17.00
2018-02-17T00:47:28.497Z,17.90
2018-02-17T00:49:56.857Z,16.90
2018-02-17T00:52:24.409Z,17.70
2018-02-17T00:54:51.999Z,18.27
2018-02-17T00:57:20.395Z,16.73
2018-02-17T00:59:47.986Z,17.15
2018-02-17T01:02:15.704Z,17.40
2018-02-17T01:04:44.062Z,18.20
2018-02-17T01:07:11.662Z,17.48
2018-02-17T01:09:39.234Z,21.25
2018-02-17T01:12:06.851Z,18.33
2018-02-17T01:14:34.407Z,18.77
2018-02-17T01:17:01.976Z,20.60
2018-02-17T01:19:29.588Z,17.12
2018-02-17T01:21:57.144Z,19.15
2018-02-17T01:24:24.758Z,20.90
2018-02-17T01:26:52.318Z,18.80
2018-02-17T01:29:19.892Z,21.85
2018-02-17T01:31:47.485Z,20.30
2018-02-17T01:34:15.040Z,23.23
2018-02-17T01:36:43.403Z,21.55
2018-02-17T01:39:11.774Z,21.17
2018-02-17T01:41:39.331Z,25.10
2018-02-17T01:44:06.930Z,23.15
2018-02-17T01:46:34.488Z,24.48
2018-02-17T01:49:02.871Z,21.10
2018-02-17T01:51:30.444Z,27.17
2018-02-17T01:53:58.049Z,22.27
2018-02-17T01:56:25.628Z,24.87
2018-02-17T01:58:53.971Z,24.00
2018-02-17T02:01:21.568Z,25.10
2018-02-17T02:03:49.125Z,22.25
2018-02-17T02:06:16.719Z,24.12
2018-02-17T02:08:44.308Z,23.25
2018-02-17T02:11:11.896Z,22.87
2018-02-17T02:13:42.567Z,21.42
2018-02-17T02:16:13.168Z,23.83
2018-02-17T02:18:43.710Z,21.87
2018-02-17T02:21:13.562Z,23.25
2018-02-17T02:23:44.021Z,23.98
2018-02-17T02:26:13.847Z,23.50
2018-02-17T02:28:43.697Z,21.85
2018-02-17T02:31:14.159Z,23.90
2018-02-17T02:33:44.426Z,22.67
2018-02-17T02:36:15.492Z,23.12
2018-02-17T02:38:46.068Z,23.08
2018-02-17T02:41:15.420Z,21.98
2018-02-17T02:43:46.026Z,24.80
2018-02-17T02:46:15.828Z,23.98
2018-02-17T02:48:45.196Z,23.50
2018-02-17T02:51:15.963Z,23.73
2018-02-17T02:53:45.674Z,24.92
2018-02-17T02:56:15.561Z,25.83
2018-02-17T02:58:45.504Z,24.17
2018-02-17T03:01:16.097Z,24.12
2018-02-17T03:03:45.974Z,23.12
2018-02-17T03:06:16.566Z,24.92
2018-02-17T03:08:45.951Z,22.27
2018-02-17T03:11:15.786Z,23.87
2018-02-17T03:13:45.167Z,23.80
2018-02-17T03:16:14.594Z,24.63
2018-02-17T03:18:44.785Z,25.33
2018-02-17T03:21:15.002Z,24.45
2018-02-17T03:23:45.251Z,25.00
2018-02-17T03:26:14.842Z,26.90
2018-02-17T03:28:44.623Z,25.70
2018-02-17T03:31:14.118Z,22.75
2018-02-17T03:33:43.616Z,24.35
2018-02-17T03:36:11.208Z,26.08
2018-02-17T03:38:38.791Z,25.20
2018-02-17T03:41:07.183Z,25.92
2018-02-17T03:43:34.766Z,24.85
2018-02-17T03:46:03.085Z,24.60
2018-02-17T03:48:30.676Z,25.27
2018-02-17T03:50:58.225Z,24.45
2018-02-17T03:53:26.590Z,24.12
2018-02-17T03:55:54.168Z,24.48
2018-02-17T03:58:22.517Z,23.58
2018-02-17T04:00:50.109Z,24.80
2018-02-17T04:03:18.447Z,25.95
2018-02-17T04:05:46.058Z,26.85
2018-02-17T04:08:13.628Z,23.77
2018-02-17T04:10:41.227Z,24.40
2018-02-17T04:13:08.780Z,24.45
2018-02-17T04:15:36.332Z,26.27
2018-02-17T04:18:03.929Z,26.55
2018-02-17T04:20:31.488Z,25.00
2018-02-17T04:22:59.093Z,26.30
2018-02-17T04:25:26.656Z,27.10
2018-02-17T04:27:54.253Z,25.25
2018-02-17T04:30:21.864Z,25.80
2018-02-17T04:32:49.452Z,25.55
2018-02-17T04:35:17.018Z,27.10
2018-02-17T04:37:44.636Z,25.85
2018-02-17T04:40:19.630Z,26.37
2018-02-17T04:43:08.068Z,27.30
2018-02-17T04:45:36.438Z,27.58
2018-02-17T04:48:05.468Z,26.30
2018-02-17T04:50:33.580Z,27.80
2018-02-17T04:53:16.032Z,28.00
2018-02-17T04:56:02.401Z,27.83
2018-02-17T04:58:31.312Z,24.08
2018-02-17T05:01:18.788Z,25.60
2018-02-17T05:03:47.937Z,24.17
2018-02-17T05:06:30.405Z,25.75
2018-02-17T05:08:58.756Z,25.37
2018-02-17T05:11:26.344Z,28.33
2018-02-17T05:14:10.501Z,26.33
2018-02-17T05:16:47.967Z,25.02
2018-02-17T05:19:30.100Z,26.20
2018-02-17T05:21:58.132Z,25.00
2018-02-17T05:24:36.439Z,23.85
2018-02-17T05:27:21.705Z,25.80
2018-02-17T05:30:04.144Z,25.05
2018-02-17T05:32:51.212Z,24.70
2018-02-17T05:35:21.634Z,24.58
2018-02-17T05:37:49.193Z,24.80
2018-02-17T05:40:17.310Z,26.00
2018-02-17T05:42:44.860Z,26.67
2018-02-17T05:45:12.444Z,26.87
2018-02-17T05:47:41.377Z,23.00
2018-02-17T05:50:09.510Z,23.98
2018-02-17T05:52:37.915Z,23.90
2018-02-17T05:55:05.467Z,24.92
2018-02-17T05:57:33.050Z,25.33
2018-02-17T06:00:00.640Z,26.75
2018-02-17T06:02:28.228Z,24.90
2018-02-17T06:04:56.610Z,22.40
2018-02-17T06:07:24.976Z,24.35
2018-02-17T06:09:52.560Z,22.30
2018-02-17T06:12:20.920Z,22.98
2018-02-17T06:14:48.526Z,23.95
2018-02-17T06:17:16.091Z,23.83
2018-02-17T06:19:43.681Z,24.85
2018-02-17T06:22:11.243Z,23.02
2018-02-17T06:24:38.828Z,22.92
2018-02-17T06:27:06.424Z,23.00
2018-02-17T06:29:34.004Z,25.20
2018-02-17T06:32:01.598Z,24.27
2018-02-17T06:34:29.151Z,25.08
2018-02-17T06:36:56.750Z,25.08
2018-02-17T06:39:24.328Z,24.80
2018-02-17T06:41:51.944Z,24.95
2018-02-17T06:44:19.504Z,23.95
2018-02-17T06:46:47.072Z,26.35
2018-02-17T06:49:15.439Z,28.05
2018-02-17T06:51:43.073Z,27.60
2018-02-17T06:54:11.388Z,27.30
2018-02-17T06:56:38.985Z,27.52
2018-02-17T06:59:06.583Z,27.60
2018-02-17T07:01:34.135Z,30.05
2018-02-17T07:04:01.724Z,25.23
2018-02-17T07:06:29.288Z,27.85
2018-02-17T07:08:56.906Z,27.45
2018-02-17T07:11:24.488Z,26.60
2018-02-17T07:13:52.033Z,25.60
2018-02-17T07:16:19.653Z,26.10
2018-02-17T07:18:47.223Z,27.25
2018-02-17T07:21:14.849Z,26.75
2018-02-17T07:23:42.450Z,26.42
2018-02-17T07:26:10.065Z,28.02
2018-02-17T07:28:37.660Z,26.67
2018-02-17T07:31:05.228Z,27.20
2018-02-17T07:33:33.572Z,26.75
2018-02-17T07:36:01.176Z,26.02
2018-02-17T07:38:28.848Z,26.80
2018-02-17T07:40:56.439Z,24.05
2018-02-17T07:43:24.003Z,24.55
2018-02-17T07:45:51.623Z,29.65
2018-02-17T07:48:19.176Z,24.67
2018-02-17T07:50:47.531Z,26.42
2018-02-17T07:53:15.136Z,26.67
2018-02-17T07:55:42.713Z,28.52
2018-02-17T07:58:10.296Z,27.40
2018-02-17T08:00:37.860Z,28.30
2018-02-17T08:03:05.464Z,28.52
2018-02-17T08:05:33.781Z,26.37
2018-02-17T08:08:01.380Z,28.62
2018-02-17T08:10:28.963Z,27.50
2018-02-17T08:12:57.338Z,28.62
2018-02-17T08:15:25.713Z,25.00
2018-02-17T08:17:53.281Z,24.87
2018-02-17T08:20:20.866Z,27.10
2018-02-17T08:22:48.463Z,28.27
2018-02-17T08:25:16.020Z,27.40
2018-02-17T08:27:43.624Z,26.05
2018-02-17T08:30:11.989Z,25.52
2018-02-17T08:32:39.544Z,27.17
2018-02-17T08:35:07.096Z,26.85
2018-02-17T08:37:34.713Z,24.35
2018-02-17T08:40:02.328Z,25.75
2018-02-17T08:42:30.769Z,26.55
2018-02-17T08:44:58.392Z,23.90
2018-02-17T08:47:26.801Z,23.85
2018-02-17T08:49:54.355Z,23.92
2018-02-17T08:52:22.712Z,24.50
2018-02-17T08:54:50.319Z,24.83
2018-02-17T08:57:17.880Z,22.33
2018-02-17T08:59:45.496Z,20.55
2018-02-17T09:02:13.823Z,22.52
2018-02-17T09:04:41.406Z,20.95
2018-02-17T09:07:09.003Z,19.50
2018-02-17T09:09:37.395Z,19.33
2018-02-17T09:12:04.998Z,19.83
2018-02-17T09:14:32.577Z,19.52
2018-02-17T09:17:00.202Z,18.60
2018-02-17T09:19:27.780Z,18.12
2018-02-17T09:21:55.342Z,17.87
2018-02-17T09:24:22.941Z,18.48
2018-02-17T09:26:56.040Z,17.50
2018-02-17T09:29:23.589Z,17.45
2018-02-17T09:31:51.177Z,16.95
2018-02-17T09:34:18.788Z,18.73
2018-02-17T09:36:46.340Z,17.80
2018-02-17T09:39:13.939Z,18.42
2018-02-17T09:41:42.327Z,16.50
2018-02-17T09:44:10.655Z,20.50
2018-02-17T09:46:38.268Z,18.15
2018-02-17T09:49:05.829Z,19.48
2018-02-17T09:51:33.424Z,18.08
2018-02-17T09:54:00.979Z,15.52
2018-02-17T09:56:28.568Z,17.73
2018-02-17T09:58:56.181Z,17.27
2018-02-17T10:01:23.734Z,16.80
2018-02-17T10:03:52.056Z,16.23
2018-02-17T10:06:19.680Z,17.80
2018-02-17T10:08:47.241Z,16.95
2018-02-17T10:11:14.801Z,16.23
2018-02-17T10:13:42.401Z,15.77
2018-02-17T10:16:09.992Z,16.85
2018-02-17T10:18:38.363Z,18.17
2018-02-17T10:21:05.930Z,17.73
2018-02-17T10:23:34.300Z,17.40
2018-02-17T10:26:01.924Z,16.23
2018-02-17T10:28:29.476Z,14.60
2018-02-17T10:30:59.106Z,15.70
2018-02-17T10:33:26.662Z,16.42
2018-02-17T10:35:54.221Z,16.35
2018-02-17T10:38:21.816Z,16.55
2018-02-17T10:40:49.372Z,17.20
2018-02-17T10:43:16.976Z,15.57
2018-02-17T10:45:44.624Z,16.60
2018-02-17T10:48:12.994Z,18.12
2018-02-17T10:50:41.335Z,14.93
2018-02-17T10:53:08.920Z,15.13
2018-02-17T10:55:38.291Z,15.05
2018-02-17T10:58:05.919Z,15.90
2018-02-17T11:00:33.489Z,15.43
2018-02-17T11:03:01.111Z,16.15
2018-02-17T11:05:28.706Z,14.35
2018-02-17T11:07:56.313Z,14.32
2018-02-17T11:10:23.865Z,14.65
2018-02-17T11:12:51.427Z,15.57
2018-02-17T11:15:19.053Z,14.87
2018-02-17T11:17:46.684Z,16.23
2018-02-17T11:20:14.293Z,15.93
2018-02-17T11:22:41.857Z,14.98
2018-02-17T11:25:11.097Z,17.10
2018-02-17T11:27:38.664Z,16.52
2018-02-17T11:30:06.284Z,15.80
2018-02-17T11:32:33.828Z,18.90
2018-02-17T11:35:01.437Z,18.75
2018-02-17T11:37:29.013Z,18.55
2018-02-17T11:39:56.580Z,18.58
2018-02-17T11:42:24.940Z,20.25
2018-02-17T11:44:52.527Z,18.33
2018-02-17T11:47:20.888Z,18.35
2018-02-17T11:49:48.432Z,18.15
2018-02-17T11:52:16.020Z,19.40
2018-02-17T11:54:44.358Z,19.37
2018-02-17T11:57:11.970Z,20.65
2018-02-17T11:59:40.291Z,18.77
2018-02-17T12:02:07.853Z,19.25
2018-02-17T12:04:35.453Z,17.92
2018-02-17T12:07:03.052Z,17.70
2018-02-17T12:09:30.609Z,19.05
2018-02-17T12:11:58.216Z,16.25
2018-02-17T12:14:25.784Z,17.70
2018-02-17T12:16:53.461Z,17.60
2018-02-17T12:19:20.997Z,17.60
2018-02-17T12:21:48.612Z,17.85
2018-02-17T12:24:16.227Z,16.55
2018-02-17T12:26:44.640Z,19.17
2018-02-17T12:29:12.548Z,15.45
2018-02-17T12:31:40.102Z,19.55
2018-02-17T12:34:07.694Z,14.55
2018-02-17T12:36:35.425Z,13.90
2018-02-17T12:39:03.049Z,13.80
2018-02-17T12:41:31.448Z,12.10
2018-02-17T12:43:59.245Z,11.38
2018-02-17T12:46:26.832Z,11.12
2018-02-17T12:48:54.514Z,11.52
2018-02-17T12:51:22.213Z,12.50
2018-02-17T12:53:49.905Z,11.25
2018-02-17T12:56:17.492Z,11.93
2018-02-17T12:58:45.106Z,11.45
2018-02-17T13:01:12.703Z,10.23
2018-02-17T13:03:40.401Z,12.35
2018-02-17T13:06:08.793Z,12.02
2018-02-17T13:08:37.108Z,10.75
2018-02-17T13:11:04.714Z,12.65
2018-02-17T13:13:32.523Z,11.27
2018-02-17T13:16:00.128Z,10.18
2018-02-17T13:18:27.700Z,12.00
2018-02-17T13:20:56.129Z,11.43
2018-02-17T13:23:23.696Z,14.50
2018-02-17T13:25:51.244Z,12.95
2018-02-17T13:28:25.945Z,12.85
2018-02-17T13:30:54.349Z,14.23
2018-02-17T13:33:22.179Z,13.98
2018-02-17T13:35:50.565Z,13.62
2018-02-17T13:38:18.173Z,13.00
2018-02-17T13:40:45.804Z,13.95
2018-02-17T13:43:13.429Z,12.43
2018-02-17T13:45:41.079Z,14.98
2018-02-17T13:48:08.992Z,13.85
2018-02-17T13:50:37.389Z,13.38
2018-02-17T13:53:05.012Z,13.80
2018-02-17T13:55:32.593Z,13.65
2018-02-17T13:58:00.208Z,13.60
2018-02-17T14:00:27.953Z,13.77
2018-02-17T14:02:55.571Z,14.57
2018-02-17T14:05:23.167Z,13.85
2018-02-17T14:07:50.979Z,13.30
2018-02-17T14:10:18.650Z,12.68
2018-02-17T14:12:47.155Z,13.73
2018-02-17T14:15:15.606Z,13.95
2018-02-17T14:17:43.373Z,16.05
2018-02-17T14:20:11.808Z,14.63
2018-02-17T14:22:39.401Z,15.00
2018-02-17T14:25:07.044Z,14.30
2018-02-17T14:27:34.616Z,15.32
2018-02-17T14:30:02.184Z,16.52
2018-02-17T14:32:29.816Z,14.77
2018-02-17T14:34:57.399Z,16.85
2018-02-17T14:37:25.028Z,17.15
2018-02-17T14:39:52.763Z,16.48
2018-02-17T14:42:20.522Z,17.65
2018-02-17T14:44:48.115Z,16.17
2018-02-17T14:47:15.666Z,17.40
2018-02-17T14:49:44.029Z,17.15
2018-02-17T14:52:11.593Z,16.58
2018-02-17T14:54:39.921Z,16.12
2018-02-17T14:57:07.517Z,17.62
2018-02-17T14:59:35.078Z,16.80
2018-02-17T15:02:02.708Z,17.58
2018-02-17T15:04:30.272Z,17.83
2018-02-17T15:06:57.831Z,20.05
2018-02-17T15:09:25.457Z,20.23
2018-02-17T15:11:53.029Z,18.23
2018-02-17T15:14:20.621Z,19.25
2018-02-17T15:16:48.175Z,18.33
2018-02-17T15:19:15.765Z,20.60
2018-02-17T15:21:43.324Z,19.60
2018-02-17T15:24:10.934Z,20.33
2018-02-17T15:26:38.510Z,20.62
2018-02-17T15:29:06.076Z,21.90
2018-02-17T15:31:33.663Z,21.33
2018-02-17T15:34:01.260Z,20.85
2018-02-17T15:36:29.608Z,20.35
2018-02-17T15:38:57.161Z,24.23
2018-02-17T15:41:24.754Z,21.27
2018-02-17T15:43:53.072Z,18.67
2018-02-17T15:46:20.713Z,19.73
2018-02-17T15:48:48.321Z,18.60
2018-02-17T15:51:15.948Z,18.55
2018-02-17T15:53:43.505Z,18.92
2018-02-17T15:56:20.140Z,18.55
2018-02-17T15:58:47.738Z,17.75
2018-02-17T16:01:15.288Z,18.30
2018-02-17T16:03:42.853Z,17.52
2018-02-17T16:06:10.460Z,20.80
2018-02-17T16:08:38.025Z,18.67
2018-02-17T16:11:05.659Z,20.35
2018-02-17T16:13:33.252Z,19.08
2018-02-17T16:16:00.845Z,22.52
2018-02-17T16:18:29.198Z,22.25
2018-02-17T16:20:56.831Z,20.40
2018-02-17T16:23:24.411Z,19.00
2018-02-17T16:25:52.036Z,21.85
2018-02-17T16:28:19.587Z,19.85
2018-02-17T16:30:52.293Z,21.08
2018-02-17T16:33:19.873Z,22.67
2018-02-17T16:35:47.476Z,22.05
2018-02-17T16:38:15.858Z,21.65
2018-02-17T16:40:43.516Z,22.02
2018-02-17T16:43:11.166Z,21.05
2018-02-17T16:45:38.730Z,21.08
2018-02-17T16:48:07.100Z,22.50
2018-02-17T16:50:34.653Z,23.98
2018-02-17T16:53:02.269Z,21.60
2018-02-17T16:55:29.862Z,24.85
2018-02-17T16:57:57.453Z,23.70
2018-02-17T17:00:25.832Z,24.48
2018-02-17T17:02:54.210Z,23.15
2018-02-17T17:05:21.806Z,23.87
2018-02-17T17:07:49.368Z,24.60
2018-02-17T17:10:16.964Z,24.23
2018-02-17T17:12:44.606Z,26.75
2018-02-17T17:15:12.167Z,26.05
2018-02-17T17:17:39.795Z,22.67
2018-02-17T17:20:08.122Z,26.73
2018-02-17T17:22:35.742Z,27.20
2018-02-17T17:25:03.322Z,27.15
2018-02-17T17:27:30.941Z,23.62
2018-02-17T17:29:58.545Z,24.98
2018-02-17T17:32:26.156Z,27.02
2018-02-17T17:34:53.762Z,27.02
2018-02-17T17:37:21.343Z,28.33
2018-02-17T17:39:48.950Z,26.45
2018-02-17T17:42:16.545Z,27.10
2018-02-17T17:44:44.096Z,27.08
2018-02-17T17:47:12.464Z,26.12
2018-02-17T17:49:40.798Z,28.65
2018-02-17T17:52:08.387Z,27.37
2018-02-17T17:54:36.046Z,26.55
2018-02-17T17:57:05.350Z,27.30
2018-02-17T17:59:32.946Z,26.33
2018-02-17T18:02:00.554Z,24.55
2018-02-17T18:04:28.146Z,27.60
2018-02-17T18:06:56.524Z,23.55
2018-02-17T18:09:24.862Z,24.85
2018-02-17T18:11:52.526Z,25.90
2018-02-17T18:14:20.081Z,25.30
2018-02-17T18:16:47.678Z,27.60
2018-02-17T18:19:15.232Z,28.27
2018-02-17T18:21:43.926Z,24.20
2018-02-17T18:24:11.529Z,26.67
2018-02-17T18:26:39.147Z,25.98
2018-02-17T18:29:06.734Z,27.50
2018-02-17T18:31:35.109Z,30.40
2018-02-17T18:34:02.723Z,29.10
2018-02-17T18:36:30.305Z,25.83
2018-02-17T18:38:57.935Z,29.02
2018-02-17T18:41:25.502Z,28.90
2018-02-17T18:43:53.247Z,28.50
2018-02-17T18:46:20.793Z,29.10
2018-02-17T18:48:48.398Z,28.15
2018-02-17T18:51:16.003Z,28.00
2018-02-17T18:53:44.358Z,27.10
2018-02-17T18:56:11.924Z,26.58
2018-02-17T18:58:39.545Z,26.95
2018-02-17T19:01:08.012Z,28.90
2018-02-17T19:03:35.608Z,25.83
2018-02-17T19:06:03.185Z,29.65
2018-02-17T19:08:31.561Z,28.85
2018-02-17T19:10:59.158Z,26.87
2018-02-17T19:13:26.721Z,29.27
2018-02-17T19:15:55.077Z,30.25
2018-02-17T19:18:22.627Z,27.00
2018-02-17T19:20:50.204Z,27.27
2018-02-17T19:23:18.590Z,26.12
2018-02-17T19:25:47.045Z,27.10
2018-02-17T19:28:14.680Z,27.65
2018-02-17T19:30:42.201Z,30.50
2018-02-17T19:33:10.577Z,29.37
2018-02-17T19:35:38.905Z,29.73
2018-02-17T19:38:06.502Z,27.33
2018-02-17T19:40:34.834Z,26.55
2018-02-17T19:43:02.404Z,28.62
2018-02-17T19:45:29.998Z,27.02
2018-02-17T19:47:58.349Z,27.85
2018-02-17T19:50:25.958Z,29.63
2018-02-17T19:52:53.514Z,30.90
2018-02-17T19:55:21.902Z,28.85
2018-02-17T19:57:50.283Z,30.02
2018-02-17T20:00:17.876Z,28.67
2018-02-17T20:02:45.490Z,28.92
2018-02-17T20:05:13.101Z,28.15
2018-02-17T20:07:40.694Z,28.45
2018-02-17T20:10:08.329Z,28.05
2018-02-17T20:12:37.738Z,27.35
2018-02-17T20:15:05.363Z,27.87
2018-02-17T20:17:32.938Z,28.12
2018-02-17T20:20:00.587Z,28.85
2018-02-17T20:22:28.146Z,29.87
2018-02-17T20:24:55.739Z,30.00
2018-02-17T20:27:23.308Z,31.95
2018-02-17T20:29:50.908Z,32.88
2018-02-17T20:32:19.247Z,28.60
2018-02-17T20:34:46.857Z,28.17
2018-02-17T20:37:15.197Z,30.25
2018-02-17T20:39:42.785Z,29.33
2018-02-17T20:42:10.385Z,29.80
2018-02-17T20:44:37.978Z,28.67
2018-02-17T20:47:05.582Z,30.40
2018-02-17T20:49:33.937Z,31.42
2018-02-17T20:52:01.494Z,29.83
2018-02-17T20:54:29.110Z,33.10
2018-02-17T20:56:56.700Z,31.10
2018-02-17T20:59:24.326Z,29.58
2018-02-17T21:01:53.762Z,31.08
2018-02-17T21:04:21.362Z,32.60
2018-02-17T21:06:49.735Z,32.47
2018-02-17T21:09:17.310Z,31.45
2018-02-17T21:11:45.701Z,33.33
2018-02-17T21:14:14.094Z,33.00
2018-02-17T21:16:41.657Z,30.90
2018-02-17T21:19:09.279Z,32.53
2018-02-17T21:21:37.614Z,31.48
2018-02-17T21:24:05.177Z,30.55
2018-02-17T21:26:32.786Z,31.55
2018-02-17T21:29:01.250Z,29.23
2018-02-17T21:31:28.815Z,31.95
2018-02-17T21:33:56.378Z,30.20
2018-02-17T21:36:23.990Z,30.85
2018-02-17T21:38:51.540Z,27.87
2018-02-17T21:41:19.145Z,30.02
2018-02-17T21:43:46.727Z,32.53
2018-02-17T21:46:15.096Z,36.25
2018-02-17T21:48:42.712Z,33.83
2018-02-17T21:51:10.287Z,32.33
2018-02-17T21:53:37.918Z,33.88
2018-02-17T21:56:06.237Z,31.12
2018-02-17T21:58:33.791Z,32.25
2018-02-17T22:01:01.378Z,34.35
2018-02-17T22:03:28.957Z,33.05
2018-02-17T22:05:57.338Z,32.90
2018-02-17T22:08:24.926Z,31.70
2018-02-17T22:10:52.558Z,31.27
2018-02-17T22:13:20.180Z,29.77
2018-02-17T22:15:47.770Z,26.87
2018-02-17T22:18:15.369Z,29.23
2018-02-17T22:20:43.006Z,26.95
2018-02-17T22:23:10.566Z,29.40
2018-02-17T22:25:38.157Z,27.42
2018-02-17T22:28:05.773Z,26.90
2018-02-17T22:30:33.351Z,26.08
2018-02-17T22:33:00.964Z,25.40
2018-02-17T22:35:28.559Z,26.60
2018-02-17T22:37:56.166Z,28.35
2018-02-17T22:40:23.784Z,27.58
2018-02-17T22:42:51.341Z,26.35
2018-02-17T22:45:18.977Z,27.30
2018-02-17T22:47:46.591Z,27.42
2018-02-17T22:50:14.918Z,28.35
2018-02-17T22:52:42.523Z,27.58
2018-02-17T22:55:10.877Z,29.33
2018-02-17T22:57:38.440Z,28.73
2018-02-17T23:00:06.794Z,28.42
2018-02-17T23:02:34.431Z,27.83
2018-02-17T23:05:02.003Z,26.25
2018-02-17T23:07:29.604Z,28.17
2018-02-17T23:09:57.165Z,27.40
2018-02-17T23:12:24.783Z,27.92
2018-02-17T23:14:52.370Z,25.85
2018-02-17T23:17:19.938Z,29.02
2018-02-17T23:19:47.534Z,31.35
2018-02-17T23:22:15.861Z,27.90
2018-02-17T23:24:43.487Z,29.77
2018-02-17T23:27:11.835Z,30.48
2018-02-17T23:29:39.406Z,29.52
2018-02-17T23:32:07.005Z,27.73
2018-02-17T23:34:34.594Z,27.08
2018-02-17T23:37:02.180Z,31.45
2018-02-17T23:39:29.738Z,30.20
2018-02-17T23:41:57.337Z,30.02
2018-02-17T23:44:24.905Z,30.42
2018-02-17T23:46:52.500Z,29.35
2018-02-17T23:49:20.069Z,29.27
2018-02-17T23:51:47.677Z,27.90
2018-02-17T23:54:16.008Z,30.10
2018-02-17T23:56:43.618Z,29.60
2018-02-17T23:59:12.038Z,27.58
